Time;durP1;ratioP1;P1;durP2;ratioP2;P2;SDS_P1;SDS_P2;PMS_P1;PMS_P2;Temp;Humidity;BMP_temperature;BMP_pressure;BME280_temperature;BME280_humidity;BME280_pressure;Samples;Min_cycle;Max_cycle;Signal;HPM_P1;HPM_P2
2022/08/11 00:01:57;;;;;;;3.83;1.67;;;;;;;;;;4898644;29;20043;-73
2022/08/11 00:04:24;;;;;;;4.50;1.85;;;;;;;;;;4900660;29;20032;-75
2022/08/11 00:06:51;;;;;;;6.78;1.73;;;;;;;;;;4895735;29;20586;-74
2022/08/11 00:09:18;;;;;;;4.10;1.67;;;;;;;;;;4900451;29;20033;-73
2022/08/11 00:11:53;;;;;;;4.70;1.90;;;;;;;;;;4894314;29;20108;-74
2022/08/11 00:14:26;;;;;;;5.30;1.75;;;;;;;;;;4897108;29;20376;-74
2022/08/11 00:16:56;;;;;;;4.90;1.70;;;;;;;;;;4889034;29;20033;-74
2022/08/11 00:19:23;;;;;;;3.22;1.80;;;;;;;;;;4898482;29;20045;-74
2022/08/11 00:21:48;;;;;;;5.80;2.00;;;;;;;;;;4898309;29;20084;-74
2022/08/11 00:24:15;;;;;;;4.70;2.20;;;;;;;;;;4898633;29;20082;-74
2022/08/11 00:26:45;;;;;;;6.03;1.80;;;;;;;;;;4889186;29;20080;-74
2022/08/11 00:29:11;;;;;;;2.90;1.90;;;;;;;;;;4895341;29;20036;-74
2022/08/11 00:31:37;;;;;;;2.72;1.80;;;;;;;;;;4893676;29;20029;-74
2022/08/11 00:34:03;;;;;;;3.20;1.90;;;;;;;;;;4899783;29;20031;-75
2022/08/11 00:36:38;;;;;;;3.28;1.90;;;;;;;;;;4898588;29;20455;-74
2022/08/11 00:39:04;;;;;;;3.00;1.85;;;;;;;;;;4892671;29;20127;-74
2022/08/11 00:41:48;;;;;;;3.00;1.45;;;;;;;;;;4895653;29;20037;-74
2022/08/11 00:44:20;;;;;;;3.22;1.60;;;;;;;;;;4895938;29;20032;-74
2022/08/11 00:46:58;;;;;;;3.70;1.75;;;;;;;;;;4897783;29;20067;-74
2022/08/11 00:49:36;;;;;;;3.28;1.73;;;;;;;;;;4887490;29;20055;-74
2022/08/11 00:52:08;;;;;;;3.60;1.85;;;;;;;;;;4891555;29;20504;-74
2022/08/11 00:54:36;;;;;;;4.45;1.77;;;;;;;;;;4899593;29;20033;-74
2022/08/11 00:57:04;;;;;;;3.90;1.90;;;;;;;;;;4887475;29;20028;-74
2022/08/11 00:59:52;;;;;;;2.83;1.85;;;;;;;;;;4893900;29;20124;-74
2022/08/11 01:02:19;;;;;;;3.38;1.55;;;;;;;;;;4895645;29;20580;-74
2022/08/11 01:05:03;;;;;;;3.55;2.00;;;;;;;;;;4882928;29;20067;-74
2022/08/11 01:08:04;;;;;;;3.13;1.85;;;;;;;;;;4898942;29;20096;-74
2022/08/11 01:10:32;;;;;;;3.25;1.92;;;;;;;;;;4875950;29;20547;-74
2022/08/11 01:13:15;;;;;;;3.30;1.88;;;;;;;;;;4880896;29;20045;-74
2022/08/11 01:15:50;;;;;;;4.60;2.05;;;;;;;;;;4895890;29;20032;-74
2022/08/11 01:18:35;;;;;;;2.88;1.80;;;;;;;;;;4895935;29;20099;-74
2022/08/11 01:21:13;;;;;;;3.95;1.88;;;;;;;;;;4896695;29;20045;-74
2022/08/11 01:24:07;;;;;;;4.45;2.08;;;;;;;;;;4892237;29;20033;-75
2022/08/11 01:26:36;;;;;;;3.95;1.95;;;;;;;;;;4897754;29;20043;-74
2022/08/11 01:29:10;;;;;;;3.25;1.75;;;;;;;;;;4895601;29;20052;-74
2022/08/11 01:31:35;;;;;;;4.63;1.85;;;;;;;;;;4892228;29;20036;-74
2022/08/11 01:34:01;;;;;;;2.90;2.15;;;;;;;;;;4897534;29;20047;-74
2022/08/11 01:36:44;;;;;;;3.80;2.08;;;;;;;;;;4890659;29;20048;-74
2022/08/11 01:39:23;;;;;;;3.45;2.00;;;;;;;;;;4897121;29;20045;-74
2022/08/11 01:44:51;;;;;;;4.22;1.98;;;;;;;;;;4890622;29;20067;-74
2022/08/11 01:50:15;;;;;;;3.25;1.90;;;;;;;;;;4888795;29;20135;-74
2022/08/11 01:52:47;;;;;;;3.78;1.75;;;;;;;;;;4896233;29;20039;-74
2022/08/11 01:55:39;;;;;;;2.80;2.00;;;;;;;;;;4897109;29;20436;-74
2022/08/11 01:58:09;;;;;;;3.83;2.03;;;;;;;;;;4890896;29;20040;-74
2022/08/11 02:00:45;;;;;;;3.50;2.00;;;;;;;;;;4892527;29;20179;-73
2022/08/11 02:03:13;;;;;;;3.40;1.90;;;;;;;;;;4892204;29;20056;-73
2022/08/11 02:05:39;;;;;;;4.38;2.10;;;;;;;;;;4896996;29;20029;-73
2022/08/11 02:08:10;;;;;;;5.35;2.20;;;;;;;;;;4898256;29;20024;-74
2022/08/11 02:13:30;;;;;;;4.55;1.98;;;;;;;;;;4895438;29;20043;-73
2022/08/11 02:16:03;;;;;;;4.93;2.13;;;;;;;;;;4894139;29;20161;-74
2022/08/11 02:24:09;;;;;;;3.67;1.98;;;;;;;;;;4886311;29;20087;-74
2022/08/11 02:26:38;;;;;;;4.90;2.53;;;;;;;;;;4885404;29;20035;-74
2022/08/11 02:29:19;;;;;;;5.35;1.92;;;;;;;;;;4892593;29;20025;-74
2022/08/11 02:34:54;;;;;;;6.32;2.50;;;;;;;;;;4884861;29;20112;-74
2022/08/11 02:37:32;;;;;;;4.47;2.08;;;;;;;;;;4890953;29;20021;-73
2022/08/11 02:39:57;;;;;;;4.45;2.13;;;;;;;;;;4881032;29;20052;-75
2022/08/11 02:42:34;;;;;;;5.45;2.15;;;;;;;;;;4892645;29;20033;-73
2022/08/11 02:45:05;;;;;;;6.82;1.85;;;;;;;;;;4893440;29;20041;-73
2022/08/11 02:47:38;;;;;;;3.38;1.98;;;;;;;;;;4897801;29;20033;-74
2022/08/11 02:50:22;;;;;;;4.25;2.03;;;;;;;;;;4896666;29;20111;-73
2022/08/11 02:52:58;;;;;;;4.05;1.95;;;;;;;;;;4892015;29;20032;-73
2022/08/11 02:55:50;;;;;;;8.20;2.20;;;;;;;;;;4886626;29;20128;-73
2022/08/11 02:58:30;;;;;;;6.57;2.50;;;;;;;;;;4877367;29;20079;-73
2022/08/11 03:01:05;;;;;;;4.40;2.40;;;;;;;;;;4896261;29;20386;-73
2022/08/11 03:03:38;;;;;;;6.22;2.22;;;;;;;;;;4897951;29;20056;-74
2022/08/11 03:06:06;;;;;;;4.20;2.03;;;;;;;;;;4889924;29;20482;-74
2022/08/11 03:09:03;;;;;;;7.50;2.20;;;;;;;;;;4895342;29;20032;-74
2022/08/11 03:17:25;;;;;;;3.00;2.10;;;;;;;;;;4886420;29;20043;-74
2022/08/11 03:19:50;;;;;;;5.15;2.28;;;;;;;;;;4896041;29;20074;-73
2022/08/11 03:22:21;;;;;;;3.97;2.38;;;;;;;;;;4896185;29;20140;-74
2022/08/11 03:25:04;;;;;;;6.85;2.15;;;;;;;;;;4892637;29;20499;-74
2022/08/11 03:27:49;;;;;;;4.20;1.90;;;;;;;;;;4897603;29;20058;-73
2022/08/11 03:30:14;;;;;;;3.63;2.13;;;;;;;;;;4883953;29;20508;-74
2022/08/11 03:35:47;;;;;;;4.88;2.80;;;;;;;;;;4889366;29;20409;-73
2022/08/11 03:38:14;;;;;;;4.10;2.58;;;;;;;;;;4899948;29;20038;-73
2022/08/11 03:43:23;;;;;;;6.10;2.40;;;;;;;;;;4897533;29;20116;-73
2022/08/11 03:45:48;;;;;;;4.25;2.90;;;;;;;;;;4899183;29;20119;-73
2022/08/11 03:48:19;;;;;;;5.88;2.58;;;;;;;;;;4900725;29;20421;-73
2022/08/11 03:50:54;;;;;;;5.50;2.55;;;;;;;;;;4897797;29;20020;-73
2022/08/11 03:53:31;;;;;;;4.00;2.67;;;;;;;;;;4898196;29;20391;-73
2022/08/11 03:55:59;;;;;;;4.38;2.67;;;;;;;;;;4896512;29;20024;-73
2022/08/11 03:58:28;;;;;;;4.22;2.42;;;;;;;;;;4893725;29;20131;-73
2022/08/11 04:01:13;;;;;;;6.53;2.83;;;;;;;;;;4899729;29;20080;-73
2022/08/11 04:03:59;;;;;;;5.65;2.63;;;;;;;;;;4897744;29;20384;-73
2022/08/11 04:06:43;;;;;;;4.20;2.72;;;;;;;;;;4883255;29;20037;-73
2022/08/11 04:09:12;;;;;;;5.97;2.80;;;;;;;;;;4892227;29;20033;-73
2022/08/11 04:11:50;;;;;;;5.35;2.67;;;;;;;;;;4892087;29;20384;-73
2022/08/11 04:17:34;;;;;;;4.72;2.85;;;;;;;;;;4898258;29;20087;-73
2022/08/11 04:20:08;;;;;;;5.40;2.70;;;;;;;;;;4893972;29;20397;-74
2022/08/11 04:22:48;;;;;;;5.68;2.80;;;;;;;;;;4898460;29;20044;-73
2022/08/11 04:25:16;;;;;;;5.50;3.28;;;;;;;;;;4886389;29;20036;-73
2022/08/11 04:27:41;;;;;;;5.53;3.03;;;;;;;;;;4898493;29;20511;-73
2022/08/11 04:30:16;;;;;;;10.88;3.10;;;;;;;;;;4887913;29;20024;-74
2022/08/11 04:32:50;;;;;;;7.93;3.47;;;;;;;;;;4899539;29;20500;-73
2022/08/11 04:35:22;;;;;;;5.28;2.80;;;;;;;;;;4897216;29;20033;-73
2022/08/11 04:38:00;;;;;;;5.55;3.13;;;;;;;;;;4893413;29;20481;-74
2022/08/11 04:40:44;;;;;;;5.57;2.97;;;;;;;;;;4897107;29;20485;-73
2022/08/11 04:43:21;;;;;;;;;;;;;;;;;;4892839;29;20036;-73
2022/08/11 04:46:02;;;;;;;10.23;2.92;;;;;;;;;;4883276;29;19916;-73
2022/08/11 05:02:56;;;;;;;7.43;3.22;;;;;;;;;;4896665;29;20091;-73
2022/08/11 05:05:30;;;;;;;5.90;3.30;;;;;;;;;;4897543;29;20029;-73
2022/08/11 05:08:02;;;;;;;8.63;3.60;;;;;;;;;;4896634;29;20048;-73
2022/08/11 05:10:46;;;;;;;6.45;3.58;;;;;;;;;;4898621;29;20044;-73
2022/08/11 05:35:42;;;;;;;6.28;2.90;;;;;;;;;;4889607;29;20104;-73
2022/08/11 05:57:48;;;;;;;3.05;1.73;;;;;;;;;;4897269;29;20047;-75
2022/08/11 06:00:14;;;;;;;2.30;1.40;;;;;;;;;;4896201;29;20052;-75
2022/08/11 06:02:42;;;;;;;4.20;1.58;;;;;;;;;;4886896;29;20032;-75
2022/08/11 06:05:08;;;;;;;3.28;1.35;;;;;;;;;;4886319;29;20034;-75
2022/08/11 06:07:33;;;;;;;5.07;1.48;;;;;;;;;;4897083;29;20036;-74
2022/08/11 06:09:59;;;;;;;5.50;1.40;;;;;;;;;;4902003;29;20096;-75
2022/08/11 06:12:36;;;;;;;4.78;1.20;;;;;;;;;;4894993;29;20029;-75
2022/08/11 06:15:05;;;;;;;5.18;1.40;;;;;;;;;;4894673;29;20044;-74
2022/08/11 06:17:31;;;;;;;2.35;1.40;;;;;;;;;;4897863;29;20076;-75
2022/08/11 06:19:58;;;;;;;2.53;1.38;;;;;;;;;;4894714;29;20210;-75
2022/08/11 06:22:24;;;;;;;2.13;1.30;;;;;;;;;;4892300;29;20059;-75
2022/08/11 06:24:51;;;;;;;2.60;1.30;;;;;;;;;;4897876;29;20435;-75
2022/08/11 06:27:25;;;;;;;4.60;1.35;;;;;;;;;;4897656;29;20040;-75
2022/08/11 06:29:51;;;;;;;7.18;1.80;;;;;;;;;;4898062;29;20115;-74
2022/08/11 06:32:17;;;;;;;5.03;1.40;;;;;;;;;;4893366;29;20484;-75
2022/08/11 06:35:00;;;;;;;3.78;1.40;;;;;;;;;;4892987;29;20023;-75
2022/08/11 06:37:45;;;;;;;2.85;1.55;;;;;;;;;;4886341;29;20109;-75
2022/08/11 06:40:21;;;;;;;4.97;1.50;;;;;;;;;;4887063;29;20043;-75
2022/08/11 06:42:52;;;;;;;4.07;1.60;;;;;;;;;;4889136;29;20561;-75
2022/08/11 06:45:26;;;;;;;4.13;1.77;;;;;;;;;;4893199;29;20044;-75
2022/08/11 06:47:52;;;;;;;3.03;1.30;;;;;;;;;;4897495;29;20114;-76
2022/08/11 06:53:04;;;;;;;4.80;1.40;;;;;;;;;;4885917;29;20056;-75
2022/08/11 07:01:02;;;;;;;4.97;1.50;;;;;;;;;;4888966;29;20411;-73
2022/08/11 07:03:31;;;;;;;4.45;1.73;;;;;;;;;;4891966;29;20461;-73
2022/08/11 07:05:57;;;;;;;8.52;1.50;;;;;;;;;;4896290;29;20490;-74
2022/08/11 07:17:05;;;;;;;3.15;1.40;;;;;;;;;;4899297;29;20123;-72
2022/08/11 07:30:48;;;;;;;4.05;1.95;;;;;;;;;;4898622;29;20063;-74
2022/08/11 07:33:18;;;;;;;4.32;1.70;;;;;;;;;;4895718;29;20032;-73
2022/08/11 07:35:48;;;;;;;3.47;1.83;;;;;;;;;;4894034;29;20056;-73
2022/08/11 07:38:17;;;;;;;4.47;1.50;;;;;;;;;;4888037;29;20108;-74
2022/08/11 07:40:44;;;;;;;2.85;1.58;;;;;;;;;;4895373;29;20119;-73
2022/08/11 07:43:11;;;;;;;2.83;1.65;;;;;;;;;;4899063;29;20487;-73
2022/08/11 07:53:52;;;;;;;3.40;1.55;;;;;;;;;;4889065;29;20069;-74
2022/08/11 07:56:18;;;;;;;3.15;1.77;;;;;;;;;;4900620;29;20028;-73
2022/08/11 08:17:59;;;;;;;3.83;1.80;;;;;;;;;;4900281;29;20115;-74
2022/08/11 08:20:30;;;;;;;5.43;1.98;;;;;;;;;;4900339;29;20088;-74
2022/08/11 08:22:57;;;;;;;3.25;1.83;;;;;;;;;;4899068;29;20445;-74
2022/08/11 08:25:25;;;;;;;5.68;2.17;;;;;;;;;;4900110;29;20034;-74
2022/08/11 08:27:52;;;;;;;4.90;2.08;;;;;;;;;;4891760;29;20040;-75
2022/08/11 08:33:02;;;;;;;9.00;2.20;;;;;;;;;;4891185;29;20133;-75
2022/08/11 08:35:29;;;;;;;6.50;2.60;;;;;;;;;;4897930;29;20037;-75
2022/08/11 08:37:54;;;;;;;3.85;2.00;;;;;;;;;;4899164;29;20040;-73
2022/08/11 08:40:20;;;;;;;5.60;2.08;;;;;;;;;;4899845;29;20362;-73
2022/08/11 08:42:50;;;;;;;5.22;1.98;;;;;;;;;;4897613;29;20036;-73
2022/08/11 08:45:17;;;;;;;3.78;2.10;;;;;;;;;;4891181;29;20037;-76
2022/08/11 08:47:46;;;;;;;5.88;1.90;;;;;;;;;;4881111;29;20461;-77
2022/08/11 08:50:13;;;;;;;4.18;2.00;;;;;;;;;;4896528;29;20063;-75
2022/08/11 08:52:46;;;;;;;6.03;2.20;;;;;;;;;;4893209;29;20028;-76
2022/08/11 08:55:16;;;;;;;8.80;2.40;;;;;;;;;;4891505;29;20090;-76
2022/08/11 08:57:42;;;;;;;7.43;1.85;;;;;;;;;;4887250;29;20120;-74
2022/08/11 09:00:08;;;;;;;4.20;1.77;;;;;;;;;;4873149;29;20084;-74
2022/08/11 09:02:34;;;;;;;5.25;2.03;;;;;;;;;;4896134;29;20051;-74
2022/08/11 09:04:59;;;;;;;7.55;1.70;;;;;;;;;;4891802;29;20060;-75
2022/08/11 09:07:25;;;;;;;4.75;1.70;;;;;;;;;;4896007;29;20173;-75
2022/08/11 09:09:51;;;;;;;7.03;1.90;;;;;;;;;;4887484;29;20047;-79
2022/08/11 09:12:18;;;;;;;4.30;1.95;;;;;;;;;;4891951;29;20433;-74
2022/08/11 09:15:00;;;;;;;4.85;1.52;;;;;;;;;;4890332;29;20054;-74
2022/08/11 09:17:30;;;;;;;8.25;1.80;;;;;;;;;;4884660;29;20024;-74
2022/08/11 09:19:59;;;;;;;5.25;1.70;;;;;;;;;;4899180;29;20052;-74
2022/08/11 09:28:00;;;;;;;7.05;1.50;;;;;;;;;;4875701;29;20067;-77
2022/08/11 09:30:26;;;;;;;3.05;1.40;;;;;;;;;;4896257;29;20453;-75
2022/08/11 09:32:59;;;;;;;2.63;1.30;;;;;;;;;;4895585;29;20219;-75
2022/08/11 09:35:28;;;;;;;2.85;1.38;;;;;;;;;;4892816;29;20048;-74
2022/08/11 09:40:38;;;;;;;2.80;1.20;;;;;;;;;;4888407;29;20052;-75
2022/08/11 09:45:52;;;;;;;2.85;1.38;;;;;;;;;;4887880;29;20128;-75
2022/08/11 09:48:19;;;;;;;8.55;1.15;;;;;;;;;;4876242;29;20153;-74
2022/08/11 09:50:47;;;;;;;5.65;1.30;;;;;;;;;;4891539;29;20036;-75
2022/08/11 09:53:14;;;;;;;3.63;1.40;;;;;;;;;;4891862;29;20029;-78
2022/08/11 09:55:39;;;;;;;5.65;1.20;;;;;;;;;;4895340;29;20032;-74
2022/08/11 09:58:15;;;;;;;1.98;1.10;;;;;;;;;;4893983;29;20386;-74
2022/08/11 10:00:42;;;;;;;5.53;0.90;;;;;;;;;;4886761;29;20040;-75
2022/08/11 10:03:11;;;;;;;3.72;1.17;;;;;;;;;;4892661;29;20032;-75
2022/08/11 10:08:21;;;;;;;2.25;1.20;;;;;;;;;;4892387;29;20436;-75
2022/08/11 10:10:48;;;;;;;2.67;1.10;;;;;;;;;;4896104;29;20120;-75
2022/08/11 10:13:17;;;;;;;2.90;1.02;;;;;;;;;;4891167;29;20032;-75
2022/08/11 10:15:45;;;;;;;1.98;1.10;;;;;;;;;;4883236;29;20052;-74
2022/08/11 10:21:08;;;;;;;1.35;0.90;;;;;;;;;;4887826;29;20091;-74
2022/08/11 10:33:58;;;;;;;4.32;1.20;;;;;;;;;;4878063;29;20076;-75
2022/08/11 10:34:34;;;;;;;4.20;1.00;;;;;;;;;;4884944;29;20568;-74
2022/08/11 10:37:01;;;;;;;2.17;1.00;;;;;;;;;;4893273;29;20032;-74
2022/08/11 10:39:27;;;;;;;2.35;1.00;;;;;;;;;;4894636;29;20128;-75
2022/08/11 10:44:38;;;;;;;5.00;1.23;;;;;;;;;;4892856;29;20043;-74
2022/08/11 10:51:11;;;;;;;2.53;1.10;;;;;;;;;;4897562;29;20397;-73
2022/08/11 11:00:49;;;;;;;2.45;1.30;;;;;;;;;;4890758;29;20119;-74
2022/08/11 11:03:14;;;;;;;2.53;1.27;;;;;;;;;;4897446;29;20028;-75
2022/08/11 11:05:40;;;;;;;3.90;1.25;;;;;;;;;;4898022;29;20029;-74
2022/08/11 11:11:05;;;;;;;1.98;1.08;;;;;;;;;;4891668;29;20079;-74
2022/08/11 11:19:01;;;;;;;3.05;1.20;;;;;;;;;;4888624;29;20039;-74
2022/08/11 11:21:27;;;;;;;3.15;1.17;;;;;;;;;;4885856;29;20049;-74
2022/08/11 11:24:10;;;;;;;6.05;1.20;;;;;;;;;;4896228;29;20666;-75
2022/08/11 11:26:39;;;;;;;1.88;1.10;;;;;;;;;;4890166;29;20108;-74
2022/08/11 11:29:10;;;;;;;2.45;1.00;;;;;;;;;;4891806;29;20029;-74
2022/08/11 11:31:50;;;;;;;10.85;1.60;;;;;;;;;;4891026;29;20032;-74
2022/08/11 11:34:34;;;;;;;5.97;1.10;;;;;;;;;;4884558;29;20041;-74
2022/08/11 11:37:00;;;;;;;3.45;1.30;;;;;;;;;;4886966;29;20049;-74
2022/08/11 11:39:28;;;;;;;2.00;1.00;;;;;;;;;;4898067;29;20080;-74
2022/08/11 11:41:58;;;;;;;2.88;1.10;;;;;;;;;;4898314;29;20024;-74
2022/08/11 11:44:24;;;;;;;3.15;1.00;;;;;;;;;;4896884;29;20405;-74
2022/08/11 11:46:49;;;;;;;3.85;1.08;;;;;;;;;;4895874;29;20044;-74
2022/08/11 11:49:18;;;;;;;4.53;1.30;;;;;;;;;;4886689;29;20061;-74
2022/08/11 11:51:47;;;;;;;3.10;1.20;;;;;;;;;;4896051;29;20033;-74
2022/08/11 11:54:13;;;;;;;2.20;1.25;;;;;;;;;;4888095;29;20087;-74
2022/08/11 11:56:40;;;;;;;3.75;1.33;;;;;;;;;;4884540;29;20464;-74
2022/08/11 12:01:58;;;;;;;3.40;1.05;;;;;;;;;;4875606;29;20076;-74
2022/08/11 12:04:24;;;;;;;3.65;1.30;;;;;;;;;;4890803;29;20033;-74
2022/08/11 12:06:51;;;;;;;4.72;1.13;;;;;;;;;;4884774;29;20393;-74
2022/08/11 12:09:22;;;;;;;3.13;0.90;;;;;;;;;;4892901;29;20044;-74
2022/08/11 12:14:32;;;;;;;5.95;0.90;;;;;;;;;;4881689;29;20104;-74
2022/08/11 12:16:57;;;;;;;3.65;1.20;;;;;;;;;;4884192;29;20477;-74
2022/08/11 12:19:24;;;;;;;2.50;1.08;;;;;;;;;;4894790;29;20441;-75
2022/08/11 12:27:19;;;;;;;5.00;1.10;;;;;;;;;;4893416;29;20055;-75
2022/08/11 12:29:54;;;;;;;2.70;1.10;;;;;;;;;;4894857;29;20473;-74
2022/08/11 12:32:20;;;;;;;4.28;1.00;;;;;;;;;;4886839;29;20033;-74
2022/08/11 12:34:45;;;;;;;4.15;1.10;;;;;;;;;;4896263;29;20107;-73
2022/08/11 12:37:12;;;;;;;2.78;1.30;;;;;;;;;;4896531;29;20068;-73
2022/08/11 12:45:27;;;;;;;2.00;1.05;;;;;;;;;;4894016;29;20044;-73
2022/08/11 12:53:27;;;;;;;4.20;1.25;;;;;;;;;;4882664;29;20885;-74
2022/08/11 12:58:40;;;;;;;3.20;0.98;;;;;;;;;;4890712;29;20080;-73
2022/08/11 13:06:33;;;;;;;5.95;1.50;;;;;;;;;;4894674;29;20073;-73
2022/08/11 13:08:59;;;;;;;3.33;1.13;;;;;;;;;;4883616;29;20049;-73
2022/08/11 13:14:08;;;;;;;2.22;0.93;;;;;;;;;;4896181;29;20080;-73
2022/08/11 13:17:21;;;;;;;2.70;1.00;;;;;;;;;;4896071;29;20040;-73
2022/08/11 13:19:22;;;;;;;2.78;0.80;;;;;;;;;;4891675;29;20048;-73
2022/08/11 13:21:48;;;;;;;2.95;1.00;;;;;;;;;;4895699;29;20064;-75
2022/08/11 13:24:14;;;;;;;1.65;0.90;;;;;;;;;;4896431;29;20025;-73
2022/08/11 13:26:41;;;;;;;2.13;0.93;;;;;;;;;;4895757;29;20077;-74
2022/08/11 13:29:07;;;;;;;4.30;1.10;;;;;;;;;;4895553;29;20074;-73
2022/08/11 13:31:32;;;;;;;2.85;0.90;;;;;;;;;;4895850;29;20429;-74
2022/08/11 13:33:58;;;;;;;2.33;1.05;;;;;;;;;;4882495;29;20029;-73
2022/08/11 13:36:27;;;;;;;2.92;0.90;;;;;;;;;;4884931;29;20115;-75
2022/08/11 13:38:53;;;;;;;2.75;1.23;;;;;;;;;;4888640;29;20072;-73
2022/08/11 13:41:38;;;;;;;3.65;1.02;;;;;;;;;;4893812;29;20028;-73
2022/08/11 13:44:03;;;;;;;2.88;1.02;;;;;;;;;;4887033;29;20045;-73
2022/08/11 13:46:29;;;;;;;1.95;1.02;;;;;;;;;;4889135;29;20028;-73
2022/08/11 13:48:56;;;;;;;4.53;0.98;;;;;;;;;;4887180;29;20375;-73
2022/08/11 13:51:35;;;;;;;3.17;1.00;;;;;;;;;;4886742;29;20031;-73
2022/08/11 13:54:03;;;;;;;1.90;0.90;;;;;;;;;;4880929;29;20025;-74
2022/08/11 13:56:29;;;;;;;1.63;0.80;;;;;;;;;;4894342;29;20043;-73
2022/08/11 13:58:55;;;;;;;2.03;1.05;;;;;;;;;;4897182;29;20029;-73
2022/08/11 14:01:23;;;;;;;3.42;0.80;;;;;;;;;;4890783;29;20025;-73
2022/08/11 14:03:49;;;;;;;2.15;1.40;;;;;;;;;;4890187;29;20103;-73
2022/08/11 14:06:16;;;;;;;2.28;0.90;;;;;;;;;;4887710;29;20520;-73
2022/08/11 14:08:42;;;;;;;3.38;1.00;;;;;;;;;;4883952;29;20025;-73
2022/08/11 14:13:51;;;;;;;2.63;1.00;;;;;;;;;;4892308;29;20035;-74
2022/08/11 14:16:27;;;;;;;2.80;1.10;;;;;;;;;;4897185;29;20041;-73
2022/08/11 14:18:53;;;;;;;1.42;0.80;;;;;;;;;;4896929;29;20497;-74
2022/08/11 14:24:04;;;;;;;4.22;0.80;;;;;;;;;;4897234;29;20032;-73
2022/08/11 14:26:35;;;;;;;1.92;0.90;;;;;;;;;;4897377;29;20037;-73
2022/08/11 14:29:20;;;;;;;3.90;0.90;;;;;;;;;;4892662;29;20061;-73
2022/08/11 14:31:47;;;;;;;2.35;1.00;;;;;;;;;;4896887;29;20045;-73
2022/08/11 14:34:13;;;;;;;1.83;1.02;;;;;;;;;;4888353;29;20037;-74
2022/08/11 14:36:39;;;;;;;2.80;0.90;;;;;;;;;;4896898;29;20033;-74
2022/08/11 14:39:15;;;;;;;2.88;1.13;;;;;;;;;;4898064;29;20047;-74
2022/08/11 14:47:36;;;;;;;3.25;1.05;;;;;;;;;;4879535;29;20047;-74
2022/08/11 14:50:02;;;;;;;2.85;1.10;;;;;;;;;;4887476;29;20055;-74
2022/08/11 14:52:30;;;;;;;2.75;0.90;;;;;;;;;;4883341;29;20044;-74
2022/08/11 14:57:40;;;;;;;2.58;1.00;;;;;;;;;;4894226;29;20044;-74
2022/08/11 15:00:06;;;;;;;2.25;0.93;;;;;;;;;;4886332;29;20055;-75
2022/08/11 15:05:21;;;;;;;2.20;1.00;;;;;;;;;;4895378;29;20055;-73
2022/08/11 15:07:46;;;;;;;4.38;1.25;;;;;;;;;;4895319;29;20564;-74
2022/08/11 15:10:11;;;;;;;2.55;1.08;;;;;;;;;;4896367;29;20495;-74
2022/08/11 15:12:38;;;;;;;2.40;1.00;;;;;;;;;;4894988;29;20040;-74
2022/08/11 15:17:50;;;;;;;3.88;1.20;;;;;;;;;;4882722;29;20064;-74
2022/08/11 15:25:48;;;;;;;1.80;0.90;;;;;;;;;;4893299;29;20490;-74
2022/08/11 15:39:21;;;;;;;1.98;1.10;;;;;;;;;;4896284;29;20460;-74
2022/08/11 15:47:25;;;;;;;2.85;0.95;;;;;;;;;;4890020;29;20140;-74
2022/08/11 15:49:53;;;;;;;2.42;1.10;;;;;;;;;;4886628;29;20040;-74
2022/08/11 15:52:22;;;;;;;3.20;0.93;;;;;;;;;;4881080;29;20068;-74
2022/08/11 15:54:48;;;;;;;2.33;0.90;;;;;;;;;;4880105;29;20485;-74
2022/08/11 16:04:10;;;;;;;2.88;0.90;;;;;;;;;;4882386;29;20028;-74
2022/08/11 16:05:16;;;;;;;2.20;1.00;;;;;;;;;;4895462;29;20614;-74
2022/08/11 16:07:47;;;;;;;2.88;0.90;;;;;;;;;;4896073;29;20021;-74
2022/08/11 16:10:23;;;;;;;3.30;0.90;;;;;;;;;;4896156;29;20044;-74
2022/08/11 16:16:13;;;;;;;2.78;0.90;;;;;;;;;;4889971;29;20033;-74
2022/08/11 16:18:40;;;;;;;1.55;0.82;;;;;;;;;;4883140;29;20047;-74
2022/08/11 16:21:16;;;;;;;1.85;0.90;;;;;;;;;;4878854;29;20028;-74
2022/08/11 16:23:43;;;;;;;5.05;0.90;;;;;;;;;;4884166;29;20088;-74
2022/08/11 16:26:09;;;;;;;3.15;1.00;;;;;;;;;;4883045;29;20033;-74
2022/08/11 16:28:35;;;;;;;2.45;0.90;;;;;;;;;;4881048;29;20088;-74
2022/08/11 16:31:01;;;;;;;5.60;0.80;;;;;;;;;;4878524;29;20401;-74
2022/08/11 16:33:27;;;;;;;2.72;1.00;;;;;;;;;;4891989;29;20020;-73
2022/08/11 16:38:38;;;;;;;1.55;0.85;;;;;;;;;;4883856;29;20515;-74
2022/08/11 16:41:09;;;;;;;1.55;0.82;;;;;;;;;;4895759;29;20048;-74
2022/08/11 16:49:09;;;;;;;1.80;0.90;;;;;;;;;;4894429;29;20454;-74
2022/08/11 16:51:35;;;;;;;2.38;1.08;;;;;;;;;;4886395;29;20095;-74
2022/08/11 16:54:00;;;;;;;5.03;0.98;;;;;;;;;;4887601;29;20120;-74
2022/08/11 16:56:34;;;;;;;1.73;1.00;;;;;;;;;;4884749;29;20033;-74
2022/08/11 16:59:13;;;;;;;2.05;1.10;;;;;;;;;;4887052;29;20401;-74
2022/08/11 17:01:48;;;;;;;2.88;1.00;;;;;;;;;;4864092;29;20037;-76
2022/08/11 17:17:59;;;;;;;2.25;0.80;;;;;;;;;;4893033;29;20056;-75
2022/08/11 17:20:25;;;;;;;1.70;0.95;;;;;;;;;;4880906;29;20064;-75
2022/08/11 17:25:36;;;;;;;2.38;0.90;;;;;;;;;;4886630;29;20133;-75
2022/08/11 17:28:01;;;;;;;1.90;0.95;;;;;;;;;;4898544;29;20059;-75
2022/08/11 17:35:27;;;;;;;3.50;1.20;;;;;;;;;;4894997;29;20037;-75
2022/08/11 17:35:59;;;;;;;4.57;0.90;;;;;;;;;;4895864;29;20556;-75
2022/08/11 17:38:25;;;;;;;2.20;1.10;;;;;;;;;;4897012;29;20083;-75
2022/08/11 17:49:19;;;;;;;2.25;0.90;;;;;;;;;;4883720;29;20132;-76
2022/08/11 17:59:59;;;;;;;3.80;1.02;;;;;;;;;;4881906;29;20108;-75
2022/08/11 18:05:12;;;;;;;3.42;1.10;;;;;;;;;;4894305;29;20028;-76
